Time;durP1;ratioP1;P1;durP2;ratioP2;P2;SDS_P1;SDS_P2;PMS_P1;PMS_P2;Temp;Humidity;BMP_temperature;BMP_pressure;BME280_temperature;BME280_humidity;BME280_pressure;Samples;Min_cycle;Max_cycle;Signal;HPM_P1;HPM_P2
2021/08/12 00:04:19;;;;;;;;;16.75;16.00;;;;;;;;6491805;39;8975;-63
2021/08/12 00:10:22;;;;;;;;;18.75;16.25;;;;;;;;6491420;39;9014;-62
2021/08/12 00:16:24;;;;;;;;;17.25;16.25;;;;;;;;6490963;39;8972;-64
2021/08/12 00:22:26;;;;;;;;;17.67;16.67;;;;;;;;6491693;39;9126;-63
2021/08/12 00:28:28;;;;;;;;;18.75;17.50;;;;;;;;6490553;46;8992;-62
2021/08/12 00:34:31;;;;;;;;;16.00;16.00;;;;;;;;6490207;46;8994;-63
2021/08/12 00:40:33;;;;;;;;;21.75;17.75;;;;;;;;6490582;39;9000;-63
2021/08/12 00:46:36;;;;;;;;;16.67;15.67;;;;;;;;6490151;31;9106;-63
2021/08/12 00:52:42;;;;;;;;;20.67;16.67;;;;;;;;6490060;46;9008;-63
2021/08/12 00:58:44;;;;;;;;;18.00;18.00;;;;;;;;6490674;39;9010;-64
2021/08/12 01:04:51;;;;;;;;;19.00;16.67;;;;;;;;6490244;39;9620;-64
2021/08/12 01:11:07;;;;;;;;;14.75;12.75;;;;;;;;6490661;39;9060;-63
2021/08/12 01:17:17;;;;;;;;;15.50;14.50;;;;;;;;6489828;39;9569;-63
2021/08/12 01:23:22;;;;;;;;;17.50;16.00;;;;;;;;6490270;39;9631;-64
2021/08/12 01:29:52;;;;;;;;;13.00;13.00;;;;;;;;6489241;46;8996;-63
2021/08/12 01:35:58;;;;;;;;;14.50;14.50;;;;;;;;6489912;39;8998;-62
2021/08/12 01:42:02;;;;;;;;;14.75;14.00;;;;;;;;6490181;46;9018;-63
2021/08/12 01:48:07;;;;;;;;;12.25;12.25;;;;;;;;6489390;39;9086;-63
2021/08/12 01:54:10;;;;;;;;;16.50;16.00;;;;;;;;6490769;39;9008;-63
2021/08/12 02:00:13;;;;;;;;;13.50;13.50;;;;;;;;6489563;39;9089;-63
2021/08/12 02:06:16;;;;;;;;;16.00;14.75;;;;;;;;6489758;36;8969;-63
2021/08/12 02:12:19;;;;;;;;;9.33;9.33;;;;;;;;6488473;46;9122;-63
2021/08/12 02:18:21;;;;;;;;;10.00;10.00;;;;;;;;6488502;39;8964;-63
2021/08/12 02:24:45;;;;;;;;;12.75;10.75;;;;;;;;6489437;31;9020;-63
2021/08/12 02:30:50;;;;;;;;;16.75;13.50;;;;;;;;6515504;31;9020;-63
2021/08/12 02:36:55;;;;;;;;;15.00;15.00;;;;;;;;6488211;39;8970;-64
2021/08/12 02:42:59;;;;;;;;;12.75;12.50;;;;;;;;6487808;39;9106;-62
2021/08/12 02:49:03;;;;;;;;;13.75;12.25;;;;;;;;6487659;31;9633;-63
2021/08/12 02:55:06;;;;;;;;;12.50;11.50;;;;;;;;6489305;39;8976;-62
2021/08/12 03:01:11;;;;;;;;;14.75;13.00;;;;;;;;6490834;31;9457;-63
2021/08/12 03:07:17;;;;;;;;;13.00;13.00;;;;;;;;6490463;39;9711;-64
2021/08/12 03:13:20;;;;;;;;;14.50;14.50;;;;;;;;6489506;39;9042;-64
2021/08/12 03:19:24;;;;;;;;;13.33;11.33;;;;;;;;6490308;39;8988;-63
2021/08/12 03:25:26;;;;;;;;;13.33;11.33;;;;;;;;6490421;31;8982;-63
2021/08/12 03:31:29;;;;;;;;;12.00;12.00;;;;;;;;6488575;46;8996;-63
2021/08/12 03:37:31;;;;;;;;;12.25;12.00;;;;;;;;6489752;39;8978;-64
2021/08/12 03:43:34;;;;;;;;;14.00;11.25;;;;;;;;6488733;46;8968;-63
2021/08/12 03:49:36;;;;;;;;;12.33;12.33;;;;;;;;6489917;39;9405;-63
2021/08/12 03:55:38;;;;;;;;;11.75;11.25;;;;;;;;6489670;39;9004;-63
2021/08/12 04:01:42;;;;;;;;;15.75;14.00;;;;;;;;6473098;31;11341;-62
2021/08/12 04:07:44;;;;;;;;;14.75;13.00;;;;;;;;6488779;39;9014;-63
2021/08/12 04:13:46;;;;;;;;;13.75;13.75;;;;;;;;6491842;46;9098;-63
2021/08/12 04:19:49;;;;;;;;;12.50;9.00;;;;;;;;6492542;39;9003;-64
2021/08/12 04:25:52;;;;;;;;;16.50;15.75;;;;;;;;6492609;31;8965;-63
2021/08/12 04:31:56;;;;;;;;;14.25;14.25;;;;;;;;6492643;39;8955;-64
2021/08/12 04:37:58;;;;;;;;;15.00;15.00;;;;;;;;6491503;46;9040;-63
2021/08/12 04:44:01;;;;;;;;;15.25;15.25;;;;;;;;6491046;46;8980;-64
2021/08/12 04:50:05;;;;;;;;;15.25;13.50;;;;;;;;6492512;46;8942;-64
2021/08/12 04:56:07;;;;;;;;;14.50;14.50;;;;;;;;6490672;39;9088;-65
2021/08/12 05:02:11;;;;;;;;;14.25;13.50;;;;;;;;6492072;39;9696;-64
2021/08/12 05:08:14;;;;;;;;;14.00;12.25;;;;;;;;6491028;31;9014;-64
2021/08/12 05:14:17;;;;;;;;;11.25;10.25;;;;;;;;6490600;39;9004;-64
2021/08/12 05:20:19;;;;;;;;;14.00;13.00;;;;;;;;6492913;31;8930;-62
2021/08/12 05:26:22;;;;;;;;;14.75;14.75;;;;;;;;6491249;31;9014;-61
2021/08/12 05:32:24;;;;;;;;;16.25;16.25;;;;;;;;6491269;39;9006;-61
2021/08/12 05:38:26;;;;;;;;;18.50;16.50;;;;;;;;6491724;31;8961;-61
2021/08/12 05:44:28;;;;;;;;;17.50;16.25;;;;;;;;6490286;39;9058;-60
2021/08/12 05:50:32;;;;;;;;;16.25;15.50;;;;;;;;6491151;31;8954;-60
2021/08/12 05:56:36;;;;;;;;;16.50;15.25;;;;;;;;6488382;46;8991;-60
2021/08/12 06:02:39;;;;;;;;;14.50;13.50;;;;;;;;6490420;39;8998;-60
2021/08/12 06:08:41;;;;;;;;;17.75;14.00;;;;;;;;6489475;39;8977;-62
2021/08/12 06:14:46;;;;;;;;;20.25;20.25;;;;;;;;6488474;39;8997;-62
2021/08/12 06:20:49;;;;;;;;;20.75;19.25;;;;;;;;6487833;47;9125;-61
2021/08/12 06:26:51;;;;;;;;;19.50;17.75;;;;;;;;6488459;39;9001;-61
2021/08/12 06:32:54;;;;;;;;;17.00;17.00;;;;;;;;6489180;39;9019;-60
2021/08/12 06:38:59;;;;;;;;;18.75;17.25;;;;;;;;6490431;39;9020;-61
2021/08/12 06:45:06;;;;;;;;;17.75;16.00;;;;;;;;6489756;31;8998;-61
2021/08/12 06:51:10;;;;;;;;;18.75;17.75;;;;;;;;6491158;39;9104;-62
2021/08/12 06:57:13;;;;;;;;;15.50;15.50;;;;;;;;6489692;39;9713;-59
2021/08/12 07:03:18;;;;;;;;;17.75;17.00;;;;;;;;6489836;31;9035;-59
2021/08/12 07:09:22;;;;;;;;;14.75;12.50;;;;;;;;6489696;39;9056;-59
2021/08/12 07:15:24;;;;;;;;;17.25;16.75;;;;;;;;6516586;31;8915;-60
2021/08/12 07:21:28;;;;;;;;;18.00;16.75;;;;;;;;6490205;39;8948;-59
2021/08/12 07:27:35;;;;;;;;;20.25;19.25;;;;;;;;6488012;39;8991;-59
2021/08/12 07:33:38;;;;;;;;;18.00;17.50;;;;;;;;6489644;31;8996;-58
2021/08/12 07:39:41;;;;;;;;;23.25;20.25;;;;;;;;6486110;31;9107;-60
2021/08/12 07:45:43;;;;;;;;;21.75;21.25;;;;;;;;6482980;31;9704;-59
2021/08/12 07:51:46;;;;;;;;;19.75;19.75;;;;;;;;6487048;39;8974;-60
2021/08/12 07:57:48;;;;;;;;;22.25;20.00;;;;;;;;6487984;31;9687;-60
2021/08/12 08:03:51;;;;;;;;;18.25;16.75;;;;;;;;6486710;39;9031;-59
2021/08/12 08:09:54;;;;;;;;;20.50;18.00;;;;;;;;6485937;46;8991;-61
2021/08/12 08:15:58;;;;;;;;;17.75;16.75;;;;;;;;6486189;39;9024;-60
2021/08/12 08:22:00;;;;;;;;;19.25;18.00;;;;;;;;6486680;39;9794;-60
2021/08/12 08:28:04;;;;;;;;;17.25;14.25;;;;;;;;6485329;39;8979;-59
2021/08/12 08:34:07;;;;;;;;;19.00;19.00;;;;;;;;6486867;35;8968;-60
2021/08/12 08:40:10;;;;;;;;;17.00;17.00;;;;;;;;6486123;46;9057;-60
2021/08/12 08:46:14;;;;;;;;;19.00;18.00;;;;;;;;6483863;39;9016;-59
2021/08/12 08:52:16;;;;;;;;;22.25;18.50;;;;;;;;6483818;31;8978;-59
2021/08/12 08:58:20;;;;;;;;;19.50;18.25;;;;;;;;6483504;39;9004;-61
2021/08/12 09:04:22;;;;;;;;;13.75;13.75;;;;;;;;6486789;39;8957;-60
2021/08/12 09:10:27;;;;;;;;;19.75;18.75;;;;;;;;6486898;39;9034;-59
2021/08/12 09:16:37;;;;;;;;;19.50;17.00;;;;;;;;6486619;31;9165;-59
2021/08/12 09:22:54;;;;;;;;;17.25;15.75;;;;;;;;6485299;46;9013;-60
2021/08/12 09:28:56;;;;;;;;;20.75;18.75;;;;;;;;6483294;39;9000;-59
2021/08/12 09:35:05;;;;;;;;;18.50;17.00;;;;;;;;6484261;31;8974;-58
2021/08/12 09:41:08;;;;;;;;;15.25;15.25;;;;;;;;6487147;31;9003;-58
2021/08/12 09:47:24;;;;;;;;;18.25;18.25;;;;;;;;6486273;46;9019;-60
2021/08/12 09:53:27;;;;;;;;;19.75;16.75;;;;;;;;6486806;31;9111;-61
2021/08/12 09:59:29;;;;;;;;;18.75;18.75;;;;;;;;6485926;31;9099;-60
2021/08/12 10:05:36;;;;;;;;;26.25;25.25;;;;;;;;6486437;46;8967;-59
2021/08/12 10:11:40;;;;;;;;;21.25;20.00;;;;;;;;6485419;39;9003;-59
2021/08/12 10:17:46;;;;;;;;;20.75;20.75;;;;;;;;6485632;46;8987;-60
2021/08/12 10:23:53;;;;;;;;;15.00;15.00;;;;;;;;6485914;31;9822;-60
2021/08/12 10:29:55;;;;;;;;;22.25;21.00;;;;;;;;6485984;31;9186;-60
2021/08/12 10:35:58;;;;;;;;;16.00;15.75;;;;;;;;6485813;31;9004;-58
2021/08/12 10:42:05;;;;;;;;;16.25;15.25;;;;;;;;6484642;47;9004;-59
2021/08/12 10:48:19;;;;;;;;;18.75;17.25;;;;;;;;6485806;39;8964;-58
2021/08/12 10:54:22;;;;;;;;;23.25;22.25;;;;;;;;6485425;31;9067;-60
2021/08/12 11:00:46;;;;;;;;;17.00;17.00;;;;;;;;6485238;31;9008;-60
2021/08/12 11:06:48;;;;;;;;;19.50;16.50;;;;;;;;6485306;39;8990;-60
2021/08/12 11:12:54;;;;;;;;;16.00;15.00;;;;;;;;6486568;31;9306;-59
2021/08/12 11:19:02;;;;;;;;;24.50;21.25;;;;;;;;6489078;39;9646;-61
2021/08/12 11:25:14;;;;;;;;;18.75;17.75;;;;;;;;6489454;39;9004;-60
2021/08/12 11:31:27;;;;;;;;;16.25;15.25;;;;;;;;6490512;31;8975;-60
2021/08/12 11:37:30;;;;;;;;;17.00;16.00;;;;;;;;6490592;31;8984;-61
2021/08/12 11:43:33;;;;;;;;;20.50;18.75;;;;;;;;6489325;46;9080;-60
2021/08/12 11:49:36;;;;;;;;;18.50;17.25;;;;;;;;6490811;39;8920;-60
2021/08/12 11:55:41;;;;;;;;;17.50;15.75;;;;;;;;6489008;46;8964;-60
2021/08/12 12:01:43;;;;;;;;;16.50;16.25;;;;;;;;6490950;31;8940;-59
2021/08/12 12:07:47;;;;;;;;;18.25;15.50;;;;;;;;6489837;46;9137;-60
2021/08/12 12:13:50;;;;;;;;;16.00;16.00;;;;;;;;6489849;31;9090;-59
2021/08/12 12:20:14;;;;;;;;;17.25;16.00;;;;;;;;6489467;39;8971;-61
2021/08/12 12:26:19;;;;;;;;;22.00;19.25;;;;;;;;6488945;46;8955;-59
2021/08/12 12:32:21;;;;;;;;;18.25;17.50;;;;;;;;6489194;44;8944;-58
2021/08/12 12:38:25;;;;;;;;;17.25;17.00;;;;;;;;6489048;46;8972;-59
2021/08/12 12:44:27;;;;;;;;;15.25;15.25;;;;;;;;6489451;31;9771;-60
2021/08/12 12:50:49;;;;;;;;;19.00;19.00;;;;;;;;6489505;46;8960;-59
2021/08/12 12:56:51;;;;;;;;;20.25;20.25;;;;;;;;6489255;39;8992;-60
2021/08/12 13:02:55;;;;;;;;;27.25;23.25;;;;;;;;6489674;46;8948;-61
2021/08/12 13:08:57;;;;;;;;;22.00;22.00;;;;;;;;6488394;39;9030;-59
2021/08/12 13:15:10;;;;;;;;;22.25;20.25;;;;;;;;6489253;39;8992;-60
2021/08/12 13:21:30;;;;;;;;;17.50;16.25;;;;;;;;6489869;39;8991;-59
2021/08/12 13:27:48;;;;;;;;;18.00;16.75;;;;;;;;6489172;46;8988;-59
2021/08/12 13:33:50;;;;;;;;;18.75;18.25;;;;;;;;6489998;39;9096;-61
2021/08/12 13:39:54;;;;;;;;;20.50;16.25;;;;;;;;6489182;39;8956;-59
2021/08/12 13:45:56;;;;;;;;;18.25;18.25;;;;;;;;6489990;46;8928;-59
2021/08/12 13:52:00;;;;;;;;;28.50;27.00;;;;;;;;6489143;39;8968;-59
2021/08/12 13:58:03;;;;;;;;;19.50;17.75;;;;;;;;6488970;39;9624;-64
2021/08/12 14:04:06;;;;;;;;;14.50;14.25;;;;;;;;6489491;39;8976;-63
2021/08/12 14:10:09;;;;;;;;;20.50;17.00;;;;;;;;6489502;31;9633;-64
2021/08/12 14:16:12;;;;;;;;;14.75;14.75;;;;;;;;6490762;39;9863;-63
2021/08/12 14:22:14;;;;;;;;;20.00;17.50;;;;;;;;6490389;31;9831;-64
2021/08/12 14:28:16;;;;;;;;;18.25;15.50;;;;;;;;6489337;47;9025;-63
2021/08/12 14:34:18;;;;;;;;;16.75;16.75;;;;;;;;6489991;39;9031;-63
2021/08/12 14:40:22;;;;;;;;;20.50;18.50;;;;;;;;6489522;39;9567;-64
2021/08/12 14:46:24;;;;;;;;;17.50;17.50;;;;;;;;6490299;31;8986;-63
2021/08/12 14:52:27;;;;;;;;;18.25;16.75;;;;;;;;6491229;46;9156;-62
2021/08/12 14:58:30;;;;;;;;;20.50;18.25;;;;;;;;6491221;46;9038;-63
2021/08/12 15:04:32;;;;;;;;;16.00;16.00;;;;;;;;6491342;39;9015;-65
2021/08/12 15:10:34;;;;;;;;;16.25;14.75;;;;;;;;6491213;46;9038;-65
2021/08/12 15:16:36;;;;;;;;;18.75;18.50;;;;;;;;6491051;39;8956;-65
2021/08/12 15:22:39;;;;;;;;;16.25;15.25;;;;;;;;6491353;39;9171;-64
2021/08/12 15:28:41;;;;;;;;;21.50;18.50;;;;;;;;6490750;46;8967;-64
2021/08/12 15:34:44;;;;;;;;;22.50;19.50;;;;;;;;6491208;39;8972;-64
2021/08/12 15:40:46;;;;;;;;;20.25;18.50;;;;;;;;6491572;31;8976;-64
2021/08/12 15:46:53;;;;;;;;;20.00;20.00;;;;;;;;6491823;39;8990;-65
2021/08/12 15:52:55;;;;;;;;;18.00;16.50;;;;;;;;6491266;39;8975;-63
2021/08/12 15:58:58;;;;;;;;;20.50;19.25;;;;;;;;6490171;39;9057;-64
2021/08/12 16:05:00;;;;;;;;;22.25;20.00;;;;;;;;6490417;46;8976;-64
2021/08/12 16:11:04;;;;;;;;;21.00;19.00;;;;;;;;6491409;39;9017;-64
2021/08/12 16:17:06;;;;;;;;;18.75;15.50;;;;;;;;6491592;31;9038;-64
2021/08/12 16:23:09;;;;;;;;;19.75;17.25;;;;;;;;6491394;39;9629;-63
2021/08/12 16:29:11;;;;;;;;;15.50;14.75;;;;;;;;6491297;39;9065;-64
2021/08/12 16:35:14;;;;;;;;;22.50;21.25;;;;;;;;6490614;46;8978;-64
2021/08/12 16:41:16;;;;;;;;;19.25;19.25;;;;;;;;6490244;39;9659;-64
2021/08/12 16:47:18;;;;;;;;;21.00;21.00;;;;;;;;6491157;31;9012;-64
2021/08/12 16:53:20;;;;;;;;;24.00;22.75;;;;;;;;6490323;46;8972;-64
2021/08/12 16:59:22;;;;;;;;;19.75;18.25;;;;;;;;6489929;39;9202;-64
2021/08/12 17:05:25;;;;;;;;;21.75;20.25;;;;;;;;6490740;39;8964;-63
2021/08/12 17:11:27;;;;;;;;;24.25;23.00;;;;;;;;6490564;39;9705;-63
2021/08/12 17:17:29;;;;;;;;;23.25;22.00;;;;;;;;6491991;39;8988;-63
2021/08/12 17:23:32;;;;;;;;;20.00;19.50;;;;;;;;6489428;39;8965;-63
2021/08/12 17:29:37;;;;;;;;;23.00;20.50;;;;;;;;6490478;39;9006;-63
2021/08/12 17:35:39;;;;;;;;;25.00;24.00;;;;;;;;6490614;31;9092;-64
2021/08/12 17:41:41;;;;;;;;;21.50;20.50;;;;;;;;6490356;39;9006;-64
2021/08/12 17:47:43;;;;;;;;;21.25;19.25;;;;;;;;6490333;46;9104;-64
2021/08/12 17:53:45;;;;;;;;;18.75;17.00;;;;;;;;6488713;47;9104;-64
2021/08/12 17:59:48;;;;;;;;;22.50;19.00;;;;;;;;6129591;39;20001800;-64
2021/08/12 18:05:50;;;;;;;;;17.75;16.25;;;;;;;;6488337;31;9009;-64
2021/08/12 18:11:52;;;;;;;;;23.25;21.50;;;;;;;;6488885;46;9083;-62
2021/08/12 18:17:55;;;;;;;;;18.50;18.50;;;;;;;;6490042;31;9107;-64
2021/08/12 18:23:57;;;;;;;;;24.75;24.50;;;;;;;;6489277;39;9488;-63
2021/08/12 18:29:59;;;;;;;;;23.50;23.50;;;;;;;;6489682;31;9107;-64
2021/08/12 18:36:06;;;;;;;;;26.75;24.00;;;;;;;;6489994;39;9075;-64
2021/08/12 18:42:08;;;;;;;;;21.50;19.50;;;;;;;;6490057;39;8962;-64
2021/08/12 18:48:10;;;;;;;;;22.25;22.00;;;;;;;;6489281;39;8975;-64
2021/08/12 18:54:15;;;;;;;;;21.25;19.50;;;;;;;;6489141;39;9100;-63
2021/08/12 19:00:17;;;;;;;;;20.75;18.75;;;;;;;;6489029;39;9041;-63
2021/08/12 19:06:20;;;;;;;;;5.25;5.25;;;;;;;;6490280;31;9073;-63
2021/08/12 19:12:22;;;;;;;;;23.75;20.75;;;;;;;;6488624;39;9025;-63
2021/08/12 19:18:24;;;;;;;;;19.75;19.75;;;;;;;;6488608;47;9033;-63
2021/08/12 19:24:27;;;;;;;;;17.25;17.25;;;;;;;;6488606;31;9659;-62
2021/08/12 19:30:29;;;;;;;;;15.50;15.25;;;;;;;;6489136;47;9013;-64
2021/08/12 19:36:31;;;;;;;;;17.25;17.25;;;;;;;;6490411;39;9030;-62
2021/08/12 19:42:34;;;;;;;;;22.75;22.50;;;;;;;;6490981;39;9010;-64
2021/08/12 19:48:36;;;;;;;;;23.50;20.75;;;;;;;;6491847;39;8963;-63
2021/08/12 19:54:41;;;;;;;;;21.00;18.00;;;;;;;;6491038;39;9012;-63
2021/08/12 20:00:44;;;;;;;;;26.00;24.00;;;;;;;;6491047;46;8995;-64
2021/08/12 20:06:46;;;;;;;;;22.25;18.50;;;;;;;;6490177;31;9001;-63
2021/08/12 20:12:48;;;;;;;;;21.00;21.00;;;;;;;;6490576;31;9030;-62
2021/08/12 20:18:51;;;;;;;;;23.00;23.00;;;;;;;;6491564;31;8978;-64
2021/08/12 20:24:53;;;;;;;;;25.00;24.67;;;;;;;;6489823;46;9088;-63
2021/08/12 20:30:56;;;;;;;;;19.67;19.67;;;;;;;;6490834;46;8969;-63
2021/08/12 20:36:59;;;;;;;;;23.67;23.00;;;;;;;;6490030;39;8999;-64
2021/08/12 20:43:02;;;;;;;;;20.75;20.75;;;;;;;;6490031;46;8977;-63
2021/08/12 20:49:04;;;;;;;;;20.00;20.00;;;;;;;;6490138;46;9019;-64
2021/08/12 20:55:06;;;;;;;;;21.00;18.00;;;;;;;;6490106;39;8966;-63
2021/08/12 21:01:09;;;;;;;;;20.67;19.67;;;;;;;;6489673;31;9019;-63
2021/08/12 21:07:11;;;;;;;;;26.33;25.67;;;;;;;;6490614;31;9032;-63
2021/08/12 21:13:13;;;;;;;;;22.67;22.00;;;;;;;;6490461;31;9022;-63
2021/08/12 21:19:16;;;;;;;;;27.67;24.33;;;;;;;;6490340;46;8966;-63
2021/08/12 21:25:18;;;;;;;;;23.00;20.67;;;;;;;;6489395;46;8971;-63
2021/08/12 21:31:20;;;;;;;;;23.00;22.67;;;;;;;;6490036;39;9894;-63
2021/08/12 21:37:23;;;;;;;;;22.00;20.00;;;;;;;;6490395;39;9000;-63
2021/08/12 21:43:30;;;;;;;;;15.67;15.67;;;;;;;;6490184;39;9013;-63
2021/08/12 21:49:32;;;;;;;;;24.67;23.00;;;;;;;;6489961;39;8936;-63
2021/08/12 21:55:35;;;;;;;;;28.67;24.00;;;;;;;;6489576;39;9029;-63
2021/08/12 22:01:37;;;;;;;;;29.33;23.00;;;;;;;;6489946;39;9738;-64
2021/08/12 22:07:40;;;;;;;;;24.33;23.00;;;;;;;;6489198;46;9033;-63
2021/08/12 22:13:42;;;;;;;;;23.00;22.33;;;;;;;;6490030;39;8992;-63
2021/08/12 22:19:44;;;;;;;;;21.33;21.33;;;;;;;;6489684;39;9617;-63
2021/08/12 22:25:47;;;;;;;;;23.00;21.67;;;;;;;;6489419;39;8947;-62
2021/08/12 22:31:50;;;;;;;;;27.00;24.67;;;;;;;;6489483;46;8958;-63
2021/08/12 22:37:53;;;;;;;;;23.33;23.00;;;;;;;;6489507;47;9027;-64
2021/08/12 22:43:55;;;;;;;;;27.00;25.33;;;;;;;;6489075;39;8981;-63
2021/08/12 22:49:57;;;;;;;;;27.00;27.00;;;;;;;;6489783;39;8971;-64
2021/08/12 22:56:00;;;;;;;;;24.67;24.00;;;;;;;;6489055;39;9069;-62
2021/08/12 23:02:03;;;;;;;;;25.33;24.00;;;;;;;;6488533;47;9019;-63
2021/08/12 23:08:05;;;;;;;;;25.33;24.33;;;;;;;;6490061;39;9089;-63
2021/08/12 23:14:07;;;;;;;;;24.00;24.00;;;;;;;;6491168;39;8976;-62
2021/08/12 23:20:12;;;;;;;;;26.67;26.67;;;;;;;;6491081;39;9553;-63
2021/08/12 23:26:14;;;;;;;;;27.67;27.67;;;;;;;;6490208;46;8987;-63
2021/08/12 23:32:17;;;;;;;;;29.67;25.67;;;;;;;;6491847;31;9008;-63
2021/08/12 23:38:19;;;;;;;;;27.67;24.33;;;;;;;;6491213;31;9044;-62
2021/08/12 23:44:21;;;;;;;;;24.00;22.33;;;;;;;;6490936;39;8977;-63
2021/08/12 23:50:23;;;;;;;;;25.67;25.67;;;;;;;;6491379;39;8967;-62
2021/08/12 23:56:27;;;;;;;;;25.67;25.67;;;;;;;;6490745;39;8998;-64
